Time;durP1;ratioP1;P1;durP2;ratioP2;P2;SDS_P1;SDS_P2;PMS_P1;PMS_P2;Temp;Humidity;BMP_temperature;BMP_pressure;BME280_temperature;BME280_humidity;BME280_pressure;Samples;Min_cycle;Max_cycle;Signal;HPM_P1;HPM_P2
2022/06/05 00:00:24;;;;;;;33.83;30.90;;;17.70;1.00;;;;;;5050695;28;20482;-56
2022/06/05 00:03:08;;;;;;;31.97;29.13;;;17.60;1.00;;;;;;5059650;28;20423;-56
2022/06/05 00:05:47;;;;;;;31.07;28.27;;;17.60;1.00;;;;;;5053819;28;20438;-55
2022/06/05 00:08:40;;;;;;;31.53;28.73;;;17.60;1.00;;;;;;5048122;28;20446;-56
2022/06/05 00:11:10;;;;;;;31.60;28.90;;;17.60;1.00;;;;;;5047728;28;20438;-52
2022/06/05 00:13:47;;;;;;;32.50;29.60;;;17.50;1.00;;;;;;5043407;28;20973;-55
2022/06/05 00:16:15;;;;;;;32.87;29.97;;;17.60;1.00;;;;;;5045310;28;20538;-56
2022/06/05 00:18:44;;;;;;;32.10;29.40;;;17.50;1.00;;;;;;5047412;28;20970;-56
2022/06/05 00:21:11;;;;;;;33.33;30.33;;;17.50;1.00;;;;;;5044745;28;20915;-56
2022/06/05 00:23:37;;;;;;;31.60;28.87;;;17.50;1.00;;;;;;5042894;28;20438;-55
2022/06/05 00:26:15;;;;;;;31.87;29.13;;;17.40;1.00;;;;;;5044993;28;20442;-55
2022/06/05 00:29:15;;;;;;;32.57;29.77;;;17.40;1.00;;;;;;5045613;28;20438;-54
2022/06/05 00:31:59;;;;;;;32.00;29.17;;;17.40;1.00;;;;;;5044843;28;20446;-53
2022/06/05 00:34:24;;;;;;;34.67;31.17;;;17.40;1.00;;;;;;5048241;28;20454;-55
2022/06/05 00:37:09;;;;;;;32.87;29.80;;;17.40;1.00;;;;;;5047817;28;20478;-55
2022/06/05 00:40:00;;;;;;;31.20;28.50;;;17.30;1.00;;;;;;5047078;28;20184;-55
2022/06/05 00:42:29;;;;;;;31.87;29.07;;;17.30;1.00;;;;;;5044921;28;20454;-54
2022/06/05 00:44:58;;;;;;;33.13;30.00;;;17.30;1.00;;;;;;5045840;28;20442;-54
2022/06/05 00:47:32;;;;;;;32.00;29.10;;;17.30;1.00;;;;;;5045805;28;20859;-54
2022/06/05 00:50:14;;;;;;;31.57;28.80;;;17.30;1.00;;;;;;5044207;28;20532;-55
2022/06/05 00:52:42;;;;;;;32.27;29.50;;;17.10;1.00;;;;;;5041464;28;20446;-55
2022/06/05 00:55:09;;;;;;;30.03;27.53;;;17.00;1.00;;;;;;5044821;28;20541;-55
2022/06/05 00:57:38;;;;;;;30.27;27.77;;;17.00;1.00;;;;;;5049605;28;20466;-52
2022/06/05 01:00:13;;;;;;;31.60;28.90;;;17.00;1.00;;;;;;5047539;28;20439;-54
2022/06/05 01:02:44;;;;;;;29.73;27.17;;;17.00;1.00;;;;;;5050067;28;20441;-56
2022/06/05 01:05:12;;;;;;;29.97;26.03;;;16.90;1.00;;;;;;5045373;28;20482;-53
2022/06/05 01:07:38;;;;;;;30.33;27.77;;;16.80;1.00;;;;;;5045030;28;20492;-54
2022/06/05 01:10:05;;;;;;;29.40;27.00;;;16.80;1.00;;;;;;5047707;28;20446;-54
2022/06/05 01:12:48;;;;;;;30.43;27.73;;;16.80;1.00;;;;;;5045656;28;20188;-55
2022/06/05 01:15:28;;;;;;;30.23;27.53;;;16.70;1.00;;;;;;5047420;28;20477;-53
2022/06/05 01:18:13;;;;;;;30.87;28.20;;;16.70;1.00;;;;;;5043812;28;20556;-56
2022/06/05 01:20:44;;;;;;;27.93;25.53;;;16.70;1.00;;;;;;5046877;28;20505;-55
2022/06/05 01:23:13;;;;;;;31.03;28.40;;;16.70;1.00;;;;;;5046049;28;20462;-54
2022/06/05 01:25:56;;;;;;;31.70;28.83;;;16.80;1.00;;;;;;5047049;28;20459;-54
2022/06/05 01:28:29;;;;;;;32.40;29.60;;;16.80;1.00;;;;;;5046116;28;20458;-52
2022/06/05 01:31:04;;;;;;;32.00;29.40;;;16.80;1.00;;;;;;5045772;28;20824;-54
2022/06/05 01:33:32;;;;;;;31.43;28.67;;;16.80;1.00;;;;;;5044249;28;20485;-55
2022/06/05 01:36:09;;;;;;;31.47;28.77;;;16.80;1.00;;;;;;5042478;28;20442;-52
2022/06/05 01:38:47;;;;;;;31.97;28.97;;;16.80;1.00;;;;;;5044514;28;20568;-56
2022/06/05 01:41:18;;;;;;;32.13;29.23;;;16.70;1.00;;;;;;5043662;28;20454;-56
2022/06/05 01:43:49;;;;;;;31.30;28.40;;;16.70;1.00;;;;;;5041764;28;20446;-56
2022/06/05 01:46:29;;;;;;;31.60;28.90;;;16.60;1.00;;;;;;5042022;28;20825;-53
2022/06/05 01:49:09;;;;;;;30.23;27.53;;;16.70;1.00;;;;;;5044401;28;20446;-55
2022/06/05 01:51:48;;;;;;;31.80;29.17;;;16.60;1.00;;;;;;5047394;28;20534;-54
2022/06/05 01:54:19;;;;;;;30.60;28.00;;;16.50;1.00;;;;;;5046038;28;20780;-54
2022/06/05 01:56:51;;;;;;;33.60;30.70;;;16.50;1.00;;;;;;5046334;28;20522;-55
2022/06/05 01:59:32;;;;;;;31.47;28.67;;;16.50;1.00;;;;;;5043034;28;20510;-55
2022/06/05 02:02:00;;;;;;;32.10;29.30;;;16.50;1.00;;;;;;5045597;28;20434;-55
2022/06/05 02:04:40;;;;;;;30.93;28.33;;;16.50;1.00;;;;;;5046456;28;20922;-56
2022/06/05 02:07:14;;;;;;;29.87;26.97;;;16.40;1.00;;;;;;5049775;28;20508;-55
2022/06/05 02:09:46;;;;;;;30.93;28.23;;;16.30;1.00;;;;;;5040177;28;20460;-55
2022/06/05 02:12:12;;;;;;;29.23;26.60;;;16.30;1.00;;;;;;5051081;28;20479;-54
2022/06/05 02:14:40;;;;;;;31.17;28.50;;;16.30;1.00;;;;;;5046417;28;20543;-54
2022/06/05 02:17:06;;;;;;;32.07;29.13;;;16.30;1.00;;;;;;5046263;28;20222;-52
2022/06/05 02:19:33;;;;;;;32.13;29.43;;;16.20;1.00;;;;;;5044484;28;21035;-53
2022/06/05 02:22:06;;;;;;;32.50;29.43;;;16.10;1.00;;;;;;5043661;28;20231;-54
2022/06/05 02:24:32;;;;;;;32.00;29.20;;;16.20;1.00;;;;;;5045845;28;20541;-55
2022/06/05 02:27:00;;;;;;;32.80;29.60;;;16.10;1.00;;;;;;5042284;28;21034;-56
2022/06/05 02:29:26;;;;;;;32.17;29.43;;;16.20;1.00;;;;;;5043944;28;20193;-54
2022/06/05 02:32:19;;;;;;;33.57;30.40;;;16.20;1.00;;;;;;5044732;28;21113;-53
2022/06/05 02:34:59;;;;;;;33.63;30.53;;;16.20;1.00;;;;;;5042875;28;20188;-51
2022/06/05 02:37:42;;;;;;;31.83;29.00;;;16.20;1.00;;;;;;5043592;28;20469;-56
2022/06/05 02:40:17;;;;;;;33.57;30.77;;;16.20;1.00;;;;;;5045679;28;20477;-54
2022/06/05 02:43:20;;;;;;;31.23;28.40;;;16.20;1.00;;;;;;5044889;28;20458;-55
2022/06/05 02:46:24;;;;;;;32.97;30.17;;;16.20;1.00;;;;;;5042246;28;20442;-56
2022/06/05 02:49:22;;;;;;;31.87;29.07;;;16.10;1.00;;;;;;5042129;28;20462;-54
2022/06/05 02:51:48;;;;;;;30.70;27.80;;;16.10;1.00;;;;;;5048217;28;20962;-54
2022/06/05 02:54:24;;;;;;;31.73;28.97;;;16.10;1.00;;;;;;5040109;28;20530;-53
2022/06/05 02:56:49;;;;;;;31.57;28.83;;;16.10;1.00;;;;;;5046111;28;20481;-52
2022/06/05 02:59:15;;;;;;;33.03;29.63;;;16.00;1.00;;;;;;5040950;28;20484;-53
2022/06/05 03:04:25;;;;;;;28.63;26.17;;;16.10;1.00;;;;;;5041420;28;20722;-52
2022/06/05 03:06:51;;;;;;;30.83;28.07;;;16.00;1.00;;;;;;5041671;28;20459;-55
2022/06/05 03:09:16;;;;;;;29.20;26.67;;;16.00;1.00;;;;;;5041758;28;20536;-54
2022/06/05 03:11:42;;;;;;;30.20;27.27;;;16.00;1.00;;;;;;5047920;28;20189;-53
2022/06/05 03:14:08;;;;;;;29.90;27.30;;;15.90;1.00;;;;;;5043969;28;20299;-52
2022/06/05 03:16:34;;;;;;;29.73;27.33;;;15.90;1.00;;;;;;5040829;28;21460;-53
2022/06/05 03:19:00;;;;;;;28.90;26.50;;;15.80;1.00;;;;;;5048270;28;20533;-54
2022/06/05 03:21:25;;;;;;;30.13;27.33;;;15.90;1.00;;;;;;5050465;28;20445;-52
2022/06/05 03:23:51;;;;;;;29.30;26.70;;;15.90;1.00;;;;;;5047805;28;20661;-53
2022/06/05 03:26:16;;;;;;;29.17;26.67;;;15.80;1.00;;;;;;5048704;28;20629;-52
2022/06/05 03:28:42;;;;;;;29.03;26.63;;;15.90;1.00;;;;;;5049118;28;20326;-54
2022/06/05 03:31:09;;;;;;;26.77;24.47;;;15.90;1.00;;;;;;5043814;28;20266;-55
2022/06/05 03:33:37;;;;;;;26.57;24.17;;;16.00;1.00;;;;;;5049043;28;20199;-54
2022/06/05 03:36:09;;;;;;;26.17;23.87;;;16.40;1.00;;;;;;5046405;28;20454;-55
2022/06/05 03:38:34;;;;;;;26.40;24.07;;;16.40;1.00;;;;;;5049094;28;20480;-56
2022/06/05 03:41:00;;;;;;;26.90;24.63;;;16.40;1.00;;;;;;5047498;28;20450;-55
2022/06/05 03:43:25;;;;;;;26.23;24.00;;;16.30;1.00;;;;;;5050757;28;20548;-55
2022/06/05 03:46:19;;;;;;;25.73;23.50;;;16.40;1.00;;;;;;5045329;28;20900;-54
2022/06/05 03:48:44;;;;;;;25.97;23.87;;;16.60;1.00;;;;;;5047429;28;20188;-56
2022/06/05 03:51:21;;;;;;;26.23;23.93;;;16.60;1.00;;;;;;5045985;28;20493;-53
2022/06/05 03:53:47;;;;;;;27.47;25.10;;;16.50;1.00;;;;;;5044928;28;20930;-53
2022/06/05 03:56:15;;;;;;;27.80;25.40;;;16.30;1.00;;;;;;5044815;28;20541;-55
2022/06/05 03:58:41;;;;;;;26.43;24.33;;;16.30;1.00;;;;;;5044303;28;20469;-53
2022/06/05 04:01:08;;;;;;;27.77;25.33;;;16.20;1.00;;;;;;5048190;28;20450;-55
2022/06/05 04:03:34;;;;;;;28.47;26.10;;;16.00;1.00;;;;;;5048277;28;20196;-56
2022/06/05 04:05:59;;;;;;;26.83;24.63;;;16.10;1.00;;;;;;5047009;28;20454;-55
2022/06/05 04:08:25;;;;;;;29.13;26.30;;;15.90;1.00;;;;;;5051614;28;20545;-56
2022/06/05 04:10:50;;;;;;;27.93;25.47;;;15.90;1.00;;;;;;5049832;28;20200;-54
2022/06/05 04:13:16;;;;;;;27.90;25.50;;;15.90;1.00;;;;;;5048052;28;20201;-52
2022/06/05 04:15:42;;;;;;;28.17;25.70;;;16.00;1.00;;;;;;5049439;28;20653;-55
2022/06/05 04:18:08;;;;;;;31.73;28.83;;;16.10;1.00;;;;;;5049382;28;20765;-56
2022/06/05 04:20:36;;;;;;;30.03;27.33;;;16.20;1.00;;;;;;5048036;28;20238;-55
2022/06/05 04:23:02;;;;;;;28.03;25.50;;;16.20;1.00;;;;;;5050144;28;21141;-55
2022/06/05 04:25:28;;;;;;;28.87;26.27;;;16.20;1.00;;;;;;5046709;28;20450;-53
2022/06/05 04:27:56;;;;;;;30.00;27.50;;;16.20;1.00;;;;;;5047105;28;20661;-54
2022/06/05 04:30:22;;;;;;;28.93;26.43;;;16.30;1.00;;;;;;5048429;28;20654;-54
2022/06/05 04:32:48;;;;;;;29.93;27.17;;;16.30;1.00;;;;;;5046014;28;20527;-54
2022/06/05 04:35:13;;;;;;;28.97;26.47;;;16.30;1.00;;;;;;5045642;28;20545;-54
2022/06/05 04:37:39;;;;;;;28.63;26.20;;;16.40;1.00;;;;;;5049668;28;20681;-57
2022/06/05 04:40:05;;;;;;;26.30;24.00;;;16.40;1.00;;;;;;5053626;28;20190;-56
2022/06/05 04:42:31;;;;;;;28.20;25.63;;;16.50;1.00;;;;;;5054880;28;20196;-55
2022/06/05 04:44:57;;;;;;;27.67;25.10;;;16.50;1.00;;;;;;5047914;28;20450;-52
2022/06/05 04:47:23;;;;;;;26.63;24.33;;;16.60;1.00;;;;;;5047634;28;20232;-56
2022/06/05 04:49:49;;;;;;;26.93;24.60;;;16.60;1.00;;;;;;5051127;28;20451;-55
2022/06/05 04:52:14;;;;;;;25.87;23.67;;;16.70;1.00;;;;;;5047043;28;20821;-57
2022/06/05 04:54:41;;;;;;;27.67;25.10;;;16.80;1.00;;;;;;5041741;28;20188;-53
2022/06/05 04:57:06;;;;;;;24.87;22.77;;;17.10;1.00;;;;;;5046368;28;20216;-53
2022/06/05 04:59:32;;;;;;;24.40;22.30;;;17.10;1.00;;;;;;5055693;28;20492;-55
2022/06/05 05:01:58;;;;;;;27.20;24.83;;;17.30;1.00;;;;;;5045355;28;20542;-54
2022/06/05 05:04:23;;;;;;;25.43;23.33;;;17.50;1.00;;;;;;5044735;28;20208;-54
2022/06/05 05:06:49;;;;;;;26.60;24.10;;;17.60;1.00;;;;;;5047372;28;21216;-55
2022/06/05 05:09:14;;;;;;;26.60;24.13;;;17.50;1.00;;;;;;5044939;28;20195;-54
2022/06/05 05:11:40;;;;;;;26.00;23.90;;;17.40;1.00;;;;;;5049233;28;20192;-51
2022/06/05 05:14:06;;;;;;;26.27;24.07;;;17.50;1.00;;;;;;5047970;28;20176;-52
2022/06/05 05:16:33;;;;;;;25.03;22.90;;;17.50;1.00;;;;;;5043395;28;20311;-55
2022/06/05 05:18:58;;;;;;;24.97;22.97;;;17.50;1.00;;;;;;5044839;28;20466;-55
2022/06/05 05:21:26;;;;;;;25.10;23.07;;;17.60;1.00;;;;;;5043091;28;20504;-55
2022/06/05 05:23:52;;;;;;;23.53;21.50;;;17.60;1.00;;;;;;5045367;28;20286;-53
2022/06/05 05:26:27;;;;;;;24.80;22.60;;;17.60;1.00;;;;;;5044476;28;20458;-53
2022/06/05 05:28:54;;;;;;;24.80;22.70;;;17.80;1.00;;;;;;5044872;28;20449;-54
2022/06/05 05:31:25;;;;;;;23.83;21.73;;;17.90;1.00;;;;;;5045553;28;20442;-54
2022/06/05 05:33:52;;;;;;;24.87;22.87;;;17.90;1.00;;;;;;5038825;28;20450;-55
2022/06/05 05:36:20;;;;;;;24.57;22.50;;;18.00;1.00;;;;;;5045510;28;20461;-56
2022/06/05 05:44:16;;;;;;;25.67;23.60;;;18.20;1.00;;;;;;5043259;28;20433;-54
2022/06/05 05:46:43;;;;;;;24.87;22.83;;;18.40;1.00;;;;;;5040851;28;20955;-55
2022/06/05 05:49:10;;;;;;;26.77;24.57;;;18.50;1.00;;;;;;5043583;28;20453;-56
2022/06/05 05:51:36;;;;;;;25.37;23.27;;;18.80;1.00;;;;;;5044097;28;20421;-55
2022/06/05 05:54:03;;;;;;;27.63;25.37;;;18.70;1.00;;;;;;5041760;28;20453;-54
2022/06/05 05:56:28;;;;;;;26.83;24.63;;;18.90;1.00;;;;;;5045063;28;20466;-57
2022/06/05 05:58:54;;;;;;;26.17;23.87;;;19.00;1.00;;;;;;5040598;28;20509;-56
2022/06/05 06:01:20;;;;;;;28.17;25.77;;;19.20;1.00;;;;;;5046299;28;20518;-54
2022/06/05 06:03:45;;;;;;;29.87;27.17;;;19.30;1.00;;;;;;5044818;28;20525;-54
2022/06/05 06:06:11;;;;;;;28.47;26.07;;;19.30;1.00;;;;;;5046550;28;20685;-55
2022/06/05 06:08:36;;;;;;;27.77;25.50;;;19.40;1.00;;;;;;5046283;28;20207;-52
2022/06/05 06:11:05;;;;;;;27.63;25.33;;;19.60;1.00;;;;;;5044278;28;20211;-55
2022/06/05 06:13:30;;;;;;;29.00;26.20;;;19.60;1.00;;;;;;5046493;28;20188;-53
2022/06/05 06:15:56;;;;;;;26.97;24.73;;;19.60;1.00;;;;;;5045634;28;20438;-54
2022/06/05 06:18:22;;;;;;;25.63;23.40;;;19.80;1.00;;;;;;5046327;28;20234;-54
2022/06/05 06:20:48;;;;;;;25.07;22.87;;;19.90;1.00;;;;;;5048666;28;20248;-53
2022/06/05 06:23:14;;;;;;;25.67;23.57;;;19.90;1.00;;;;;;5044616;28;20429;-53
2022/06/05 06:25:41;;;;;;;26.00;23.90;;;20.00;1.00;;;;;;5048343;28;20546;-54
2022/06/05 06:28:07;;;;;;;27.20;24.90;;;20.10;1.00;;;;;;5051742;28;21594;-55
2022/06/05 06:30:34;;;;;;;25.43;23.43;;;20.30;1.00;;;;;;5043203;28;20458;-56
2022/06/05 06:33:00;;;;;;;25.80;23.73;;;20.40;1.00;;;;;;5043799;28;20436;-54
2022/06/05 06:35:26;;;;;;;25.60;23.50;;;20.50;1.00;;;;;;5046973;28;20535;-55
2022/06/05 06:37:52;;;;;;;24.73;22.83;;;20.70;1.00;;;;;;5045108;28;20452;-54
2022/06/05 06:40:18;;;;;;;24.93;22.87;;;20.90;1.00;;;;;;5046957;28;20898;-55
2022/06/05 06:42:43;;;;;;;22.90;21.20;;;21.00;1.00;;;;;;5046824;28;20238;-54
2022/06/05 06:45:09;;;;;;;26.43;24.33;;;20.90;1.00;;;;;;5042419;28;20245;-54
2022/06/05 06:47:35;;;;;;;24.60;22.60;;;21.00;1.00;;;;;;5041312;28;20235;-55
2022/06/05 06:50:00;;;;;;;24.00;22.23;;;21.00;1.00;;;;;;5043667;28;20453;-56
2022/06/05 06:52:26;;;;;;;24.43;22.53;;;21.10;1.00;;;;;;5042866;28;20189;-53
2022/06/05 06:54:53;;;;;;;23.13;21.40;;;21.20;1.00;;;;;;5044155;28;20192;-54
2022/06/05 06:57:19;;;;;;;23.30;21.60;;;21.30;1.00;;;;;;5047167;28;20227;-54
2022/06/05 06:59:45;;;;;;;23.63;21.73;;;21.60;1.00;;;;;;5042096;28;20438;-53
2022/06/05 07:02:11;;;;;;;22.83;21.03;;;21.90;1.00;;;;;;5043443;28;20460;-55
2022/06/05 07:04:36;;;;;;;22.67;20.97;;;22.00;1.00;;;;;;5052058;28;20233;-55
2022/06/05 07:07:03;;;;;;;23.63;21.83;;;21.90;1.00;;;;;;5054191;28;20188;-55
2022/06/05 07:09:28;;;;;;;21.53;19.87;;;21.90;1.00;;;;;;5052549;28;20660;-54
2022/06/05 07:11:54;;;;;;;21.60;19.70;;;22.10;1.00;;;;;;5044835;28;20504;-54
2022/06/05 07:14:20;;;;;;;21.03;19.33;;;22.20;1.00;;;;;;5056181;28;20191;-55
2022/06/05 07:16:46;;;;;;;18.30;16.87;;;22.40;1.00;;;;;;5048334;28;20573;-53
2022/06/05 07:19:11;;;;;;;19.10;17.57;;;22.60;1.00;;;;;;5041446;28;20405;-54
2022/06/05 07:21:37;;;;;;;16.80;15.50;;;22.70;1.00;;;;;;5046362;28;20184;-53
2022/06/05 07:24:03;;;;;;;16.33;15.10;;;22.80;1.00;;;;;;5049739;28;20196;-62
2022/06/05 07:26:31;;;;;;;15.17;14.07;;;22.80;1.00;;;;;;5047312;28;20176;-54
2022/06/05 07:28:58;;;;;;;15.27;14.10;;;23.10;1.00;;;;;;5046696;28;20192;-55
2022/06/05 07:31:26;;;;;;;15.27;13.97;;;23.10;1.00;;;;;;5046911;28;20952;-53
2022/06/05 07:33:52;;;;;;;14.40;13.30;;;23.20;1.00;;;;;;5046337;28;20495;-55
2022/06/05 07:36:20;;;;;;;13.93;12.93;;;23.20;1.00;;;;;;5046057;28;20483;-52
2022/06/05 07:38:47;;;;;;;14.03;13.03;;;23.50;1.00;;;;;;5047876;28;20265;-52
2022/06/05 07:41:29;;;;;;;13.20;11.93;;;23.70;1.00;;;;;;5049795;28;20483;-53
2022/06/05 07:43:56;;;;;;;11.97;10.83;;;23.80;1.00;;;;;;5047135;28;20424;-54
2022/06/05 07:46:22;;;;;;;11.23;10.33;;;24.10;1.00;;;;;;5045811;28;20474;-54
2022/06/05 07:48:48;;;;;;;10.83;10.03;;;24.10;1.00;;;;;;5048222;28;20515;-53
2022/06/05 07:56:50;;;;;;;9.33;8.63;;;24.50;1.00;;;;;;5041922;28;20864;-55
2022/06/05 07:59:16;;;;;;;9.87;9.17;;;24.80;1.00;;;;;;5045174;28;20432;-56
2022/06/05 08:01:41;;;;;;;10.20;9.33;;;24.80;1.00;;;;;;5046996;28;20951;-55
2022/06/05 08:04:07;;;;;;;10.47;9.67;;;24.80;1.00;;;;;;5049095;28;20196;-54
2022/06/05 08:06:34;;;;;;;10.00;9.30;;;25.00;1.00;;;;;;5051699;28;20464;-54
2022/06/05 08:09:01;;;;;;;10.03;9.17;;;25.20;1.00;;;;;;5049460;28;20200;-56
2022/06/05 08:11:27;;;;;;;10.03;9.13;;;25.20;1.00;;;;;;5054289;28;20424;-55
2022/06/05 08:13:52;;;;;;;8.50;7.87;;;25.50;1.00;;;;;;5049923;28;20440;-54
2022/06/05 08:16:18;;;;;;;8.23;7.63;;;25.60;1.00;;;;;;5055138;28;20244;-55
2022/06/05 08:18:43;;;;;;;8.00;7.40;;;25.70;1.00;;;;;;5052256;28;20245;-55
2022/06/05 08:21:09;;;;;;;7.90;7.30;;;25.80;1.00;;;;;;5057293;28;20183;-54
2022/06/05 08:23:35;;;;;;;8.10;7.60;;;26.00;1.00;;;;;;5049095;28;20219;-53
2022/06/05 08:26:07;;;;;;;8.57;7.97;;;;;;;;;;5047955;28;20238;-56
2022/06/05 08:28:32;;;;;;;8.60;8.00;;;26.30;1.00;;;;;;5050989;28;20184;-55
2022/06/05 08:30:58;;;;;;;7.73;7.23;;;26.20;1.00;;;;;;5050415;28;20420;-54
2022/06/05 08:33:23;;;;;;;8.37;7.77;;;26.30;1.00;;;;;;5050365;28;20200;-55
2022/06/05 08:35:49;;;;;;;8.33;7.63;;;26.30;1.00;;;;;;5045849;28;20542;-55
2022/06/05 08:41:26;;;;;;;8.57;7.80;;;26.40;1.00;;;;;;5049516;28;20190;-53
2022/06/05 08:43:55;;;;;;;8.10;7.53;;;26.40;1.00;;;;;;5043177;28;20460;-56
2022/06/05 08:46:31;;;;;;;7.33;6.83;;;26.40;1.00;;;;;;5046113;28;20512;-57
2022/06/05 08:49:02;;;;;;;8.27;7.60;;;26.50;1.00;;;;;;5045751;28;20481;-54
2022/06/05 08:51:40;;;;;;;7.73;7.23;;;26.60;1.00;;;;;;5056254;28;20445;-54
2022/06/05 08:54:33;;;;;;;8.40;7.70;;;26.50;1.00;;;;;;5047526;28;20496;-56
2022/06/05 08:57:08;;;;;;;7.43;6.83;;;26.60;1.00;;;;;;5053617;28;20748;-53
2022/06/05 08:59:55;;;;;;;8.07;7.37;;;26.60;1.00;;;;;;5053667;28;20968;-55
2022/06/05 09:02:35;;;;;;;8.00;7.50;;;26.50;1.00;;;;;;5054920;28;20461;-55
2022/06/05 09:05:12;;;;;;;8.20;7.60;;;26.50;1.00;;;;;;5046859;28;20455;-56
2022/06/05 09:07:43;;;;;;;7.53;7.00;;;26.60;1.00;;;;;;5049456;28;20433;-54
2022/06/05 09:10:18;;;;;;;8.30;7.70;;;27.40;1.00;;;;;;5052339;28;20866;-53
2022/06/05 09:12:54;;;;;;;7.80;7.30;;;27.40;1.00;;;;;;5048735;28;20425;-53
2022/06/05 09:15:30;;;;;;;7.80;7.30;;;27.70;1.00;;;;;;5048516;28;20425;-53
2022/06/05 09:17:58;;;;;;;8.30;7.70;;;27.50;1.00;;;;;;5044639;28;20742;-54
2022/06/05 09:20:56;;;;;;;7.67;7.17;;;27.50;1.00;;;;;;5046485;28;20475;-52
2022/06/05 09:23:40;;;;;;;7.80;7.30;;;27.20;1.00;;;;;;5037302;28;20516;-53
2022/06/05 09:26:24;;;;;;;8.50;7.70;;;27.40;1.00;;;;;;5053210;28;20553;-54
2022/06/05 09:29:15;;;;;;;8.20;7.70;;;27.40;1.00;;;;;;5051394;28;20448;-54
2022/06/05 09:31:43;;;;;;;10.10;9.40;;;27.50;1.00;;;;;;5047775;28;20425;-54
2022/06/05 09:34:23;;;;;;;7.37;6.93;;;27.60;1.00;;;;;;5047213;28;20513;-53
2022/06/05 09:37:03;;;;;;;8.00;7.20;;;27.20;1.00;;;;;;5050746;28;20429;-56
2022/06/05 09:39:51;;;;;;;7.50;7.00;;;27.20;1.00;;;;;;5047147;28;20963;-55
2022/06/05 09:42:37;;;;;;;7.70;7.20;;;27.20;1.00;;;;;;5045690;28;20424;-55
2022/06/05 09:45:19;;;;;;;8.57;7.97;;;27.00;1.00;;;;;;5047700;28;20452;-57
2022/06/05 09:48:23;;;;;;;7.23;6.70;;;27.20;1.00;;;;;;5049478;28;20506;-55
2022/06/05 09:50:48;;;;;;;7.80;7.30;;;27.80;1.00;;;;;;5047681;28;20516;-54
2022/06/05 09:53:23;;;;;;;7.30;6.80;;;27.80;1.00;;;;;;5053670;28;20441;-54
2022/06/05 09:56:04;;;;;;;7.40;6.90;;;27.80;1.00;;;;;;5053792;28;20271;-58
2022/06/05 09:58:51;;;;;;;7.50;7.00;;;27.90;1.00;;;;;;5049165;28;20798;-54
2022/06/05 10:01:33;;;;;;;7.53;7.03;;;27.90;1.00;;;;;;5052201;28;20455;-55
2022/06/05 10:03:59;;;;;;;7.27;6.80;;;28.00;1.00;;;;;;5045445;28;20784;-55
2022/06/05 10:06:51;;;;;;;7.50;7.00;;;28.30;1.00;;;;;;5049032;28;20419;-55
2022/06/05 10:09:26;;;;;;;6.60;6.10;;;28.30;1.00;;;;;;5046471;28;20448;-56
2022/06/05 10:11:58;;;;;;;6.83;6.33;;;28.30;1.00;;;;;;5046525;28;20987;-55
2022/06/05 10:14:59;;;;;;;6.73;6.33;;;28.40;1.00;;;;;;5048506;28;20853;-55
2022/06/05 10:17:30;;;;;;;7.13;6.63;;;28.40;1.00;;;;;;5041335;28;20479;-54
2022/06/05 10:20:05;;;;;;;7.50;7.00;;;28.20;1.00;;;;;;5036156;28;20454;-51
2022/06/05 10:22:39;;;;;;;14.60;13.10;;;27.90;1.00;;;;;;5035321;28;20446;-52
2022/06/05 10:25:23;;;;;;;25.33;21.00;;;27.90;1.00;;;;;;5047000;28;20428;-53
2022/06/05 10:27:52;;;;;;;7.67;7.17;;;28.00;1.00;;;;;;5048756;28;20431;-55
2022/06/05 10:30:19;;;;;;;9.77;8.97;;;27.90;1.00;;;;;;5047985;28;20413;-56
2022/06/05 10:32:57;;;;;;;7.30;6.70;;;28.00;1.00;;;;;;5048003;28;20453;-54
2022/06/05 10:36:00;;;;;;;7.03;6.43;;;28.20;1.00;;;;;;5048472;28;20431;-53
2022/06/05 10:38:45;;;;;;;7.00;6.50;;;28.30;1.00;;;;;;5044418;28;20936;-53
2022/06/05 10:41:26;;;;;;;7.43;6.93;;;28.40;1.00;;;;;;5048111;28;20512;-54
2022/06/05 10:44:17;;;;;;;7.60;7.10;;;28.30;1.00;;;;;;5048013;28;20997;-54
2022/06/05 10:46:52;;;;;;;8.00;7.40;;;28.50;1.00;;;;;;5028153;28;20458;-53
2022/06/05 10:49:27;;;;;;;7.13;6.70;;;28.60;1.00;;;;;;5047286;28;20408;-55
2022/06/05 10:52:19;;;;;;;8.20;6.50;;;28.60;1.00;;;;;;5049061;28;20479;-54
2022/06/05 10:55:34;;;;;;;6.20;5.80;;;28.70;1.00;;;;;;5045079;28;20437;-56
2022/06/05 10:58:25;;;;;;;6.33;5.87;;;28.70;1.00;;;;;;5010595;28;20466;-55
2022/06/05 11:01:09;;;;;;;6.40;6.00;;;28.70;1.00;;;;;;5046026;28;20547;-56
2022/06/05 11:03:53;;;;;;;7.00;6.50;;;28.60;1.00;;;;;;5049233;28;20525;-51
2022/06/05 11:06:47;;;;;;;6.60;6.10;;;28.60;1.00;;;;;;5049155;28;20467;-52
2022/06/05 11:09:34;;;;;;;7.57;6.90;;;28.70;1.00;;;;;;5049244;28;20413;-55
2022/06/05 11:15:18;;;;;;;6.07;5.67;;;28.60;1.00;;;;;;5048234;28;20441;-55
2022/06/05 11:18:04;;;;;;;6.70;6.30;;;28.70;1.00;;;;;;5049352;28;20877;-56
2022/06/05 11:20:30;;;;;;;6.47;5.90;;;28.70;1.00;;;;;;5046218;28;20497;-54
2022/06/05 11:23:18;;;;;;;6.63;6.13;;;28.70;1.00;;;;;;5043958;28;20409;-57
2022/06/05 11:25:54;;;;;;;6.87;6.47;;;28.80;1.00;;;;;;5045448;28;20450;-56
2022/06/05 11:28:42;;;;;;;8.53;7.00;;;28.80;1.00;;;;;;5048310;28;20420;-56
2022/06/05 11:31:46;;;;;;;6.77;6.17;;;28.80;1.00;;;;;;5048411;28;20443;-54
2022/06/05 11:34:23;;;;;;;8.20;7.13;;;29.00;1.00;;;;;;5048796;28;20442;-54
2022/06/05 11:36:56;;;;;;;7.50;6.47;;;29.20;1.00;;;;;;5047446;28;20672;-56
2022/06/05 11:39:34;;;;;;;6.90;6.40;;;29.40;1.00;;;;;;5052281;28;20529;-55
2022/06/05 11:42:21;;;;;;;6.40;6.00;;;29.60;1.00;;;;;;5053744;28;20815;-54
2022/06/05 11:45:03;;;;;;;6.00;5.60;;;29.70;1.00;;;;;;5055238;28;20421;-54
2022/06/05 11:47:51;;;;;;;6.33;5.93;;;29.90;1.00;;;;;;5043313;28;20502;-55
2022/06/05 11:50:38;;;;;;;6.87;6.10;;;29.50;1.00;;;;;;5056414;28;20523;-52
2022/06/05 11:53:14;;;;;;;6.50;6.00;;;29.40;1.00;;;;;;5051976;28;20531;-54
2022/06/05 11:56:17;;;;;;;6.07;5.67;;;29.20;1.00;;;;;;5048328;28;20438;-55
2022/06/05 11:59:10;;;;;;;6.87;6.37;;;29.30;1.00;;;;;;5044874;28;20520;-54
2022/06/05 12:01:44;;;;;;;6.87;6.37;;;29.50;1.00;;;;;;5046735;28;20450;-53
2022/06/05 12:04:15;;;;;;;6.50;6.00;;;29.40;1.00;;;;;;5050102;28;21031;-55
2022/06/05 12:06:50;;;;;;;7.10;6.70;;;29.20;1.00;;;;;;5055003;28;20446;-56
2022/06/05 12:09:25;;;;;;;6.80;6.40;;;29.20;1.00;;;;;;5053131;28;21029;-55
2022/06/05 12:12:08;;;;;;;6.70;6.27;;;29.30;1.00;;;;;;5054712;28;20438;-54
2022/06/05 12:14:56;;;;;;;6.53;6.00;;;29.10;1.00;;;;;;5053525;28;20413;-55
2022/06/05 12:17:43;;;;;;;6.33;5.93;;;29.00;1.00;;;;;;5058962;28;20485;-55
2022/06/05 12:20:27;;;;;;;5.97;5.57;;;29.00;1.00;;;;;;5056601;28;20432;-55
2022/06/05 12:23:02;;;;;;;6.50;6.00;;;29.00;1.00;;;;;;5049034;28;20440;-54
2022/06/05 12:25:52;;;;;;;6.57;6.07;;;29.30;1.00;;;;;;5048689;28;20421;-55
2022/06/05 12:28:28;;;;;;;6.33;5.83;;;29.50;1.00;;;;;;5050508;28;20447;-55
2022/06/05 12:31:24;;;;;;;6.50;6.00;;;29.60;1.00;;;;;;5047556;28;20496;-56
2022/06/05 12:34:26;;;;;;;6.50;6.10;;;30.10;1.00;;;;;;5050951;28;20953;-56
2022/06/05 12:36:58;;;;;;;6.03;5.73;;;30.10;1.00;;;;;;5049471;28;20423;-53
2022/06/05 12:39:31;;;;;;;6.63;6.10;;;30.40;1.00;;;;;;5050982;28;20535;-54
2022/06/05 12:42:35;;;;;;;7.33;6.63;;;30.50;1.00;;;;;;5050191;28;20836;-52
2022/06/05 12:45:06;;;;;;;5.57;5.27;;;30.70;1.00;;;;;;5054801;28;20493;-56
2022/06/05 12:47:57;;;;;;;6.63;6.10;;;31.00;1.00;;;;;;5053811;28;20948;-54
2022/06/05 12:50:41;;;;;;;6.23;5.83;;;31.00;1.00;;;;;;5049777;28;20474;-55
2022/06/05 12:53:37;;;;;;;6.23;5.87;;;31.20;1.00;;;;;;5053835;28;20476;-54
2022/06/05 12:56:38;;;;;;;5.80;5.30;;;31.30;1.00;;;;;;5052348;28;20530;-56
2022/06/05 12:59:24;;;;;;;5.63;5.33;;;31.40;1.00;;;;;;5049260;28;20497;-53
2022/06/05 13:02:22;;;;;;;5.70;5.30;;;31.30;1.00;;;;;;5047525;28;20447;-54
2022/06/05 13:04:57;;;;;;;5.50;5.10;;;31.10;1.00;;;;;;5030886;28;20451;-56
2022/06/05 13:07:38;;;;;;;4.90;4.50;;;31.10;1.00;;;;;;5050258;28;20442;-54
2022/06/05 13:10:26;;;;;;;6.03;5.50;;;31.20;1.00;;;;;;5047738;28;20968;-55
2022/06/05 13:13:14;;;;;;;5.97;5.57;;;31.20;1.00;;;;;;5047151;28;20463;-56
2022/06/05 13:15:46;;;;;;;5.33;4.80;;;31.00;1.00;;;;;;5050221;28;20455;-55
2022/06/05 13:18:29;;;;;;;5.43;5.03;;;30.70;1.00;;;;;;5046096;28;20474;-56
2022/06/05 13:21:25;;;;;;;5.80;5.40;;;30.60;1.00;;;;;;5048901;28;20424;-54
2022/06/05 13:24:20;;;;;;;5.53;5.20;;;30.60;1.00;;;;;;5050203;28;20428;-54
2022/06/05 13:26:59;;;;;;;6.90;6.40;;;30.50;1.00;;;;;;5046613;28;20453;-54
2022/06/05 13:30:01;;;;;;;6.10;5.70;;;30.40;1.00;;;;;;5049224;28;20421;-56
2022/06/05 13:32:48;;;;;;;6.10;5.70;;;30.50;1.00;;;;;;5054363;28;20467;-54
2022/06/05 13:35:42;;;;;;;5.37;5.00;;;30.40;1.00;;;;;;5048123;28;20442;-52
2022/06/05 13:38:25;;;;;;;5.43;4.77;;;30.50;1.00;;;;;;5053292;28;20462;-56
2022/06/05 13:41:18;;;;;;;4.87;4.47;;;30.40;1.00;;;;;;5052020;28;20970;-54